Time;durP1;ratioP1;P1;durP2;ratioP2;P2;SDS_P1;SDS_P2;PMS_P1;PMS_P2;Temp;Humidity;BMP_temperature;BMP_pressure;BME280_temperature;BME280_humidity;BME280_pressure;Samples;Min_cycle;Max_cycle;Signal;HPM_P1;HPM_P2
2024/03/14 00:02:05;;;;;;;;;19.50;14.50;;;;;4.59;98.24;100675.20;112232;242;161621;-54
2024/03/14 00:04:37;;;;;;;;;20.33;17.00;;;;;4.57;98.41;100673.05;112164;244;39516;-55
2024/03/14 00:07:10;;;;;;;;;21.67;15.33;;;;;4.56;98.38;100671.41;112428;244;39011;-54
2024/03/14 00:09:45;;;;;;;;;26.00;20.00;;;;;4.58;98.38;100674.01;112284;243;161309;-54
2024/03/14 00:12:16;;;;;;;;;21.25;16.50;;;;;4.65;98.37;100674.29;112124;244;39657;-54
2024/03/14 00:14:50;;;;;;;;;32.00;19.25;;;;;4.68;98.14;100673.64;112330;243;160885;-54
2024/03/14 00:17:21;;;;;;;;;34.50;23.50;;;;;4.67;98.25;100672.84;112340;243;40205;-54
2024/03/14 00:19:53;;;;;;;;;23.33;18.00;;;;;4.59;98.22;100668.63;112435;243;39530;-51
2024/03/14 00:22:28;;;;;;;;;24.75;18.00;;;;;4.55;98.45;100670.22;112115;244;40848;-51
2024/03/14 00:24:59;;;;;;;;;23.25;17.00;;;;;4.52;98.39;100666.98;112170;244;39600;-51
2024/03/14 00:27:30;;;;;;;;;21.00;15.50;;;;;4.46;98.47;100665.25;111998;244;161698;-50
2024/03/14 00:30:03;;;;;;;;;22.00;17.50;;;;;4.43;98.64;100664.02;112373;244;40412;-53
2024/03/14 00:32:33;;;;;;;;;27.00;19.00;;;;;4.43;98.67;100659.75;112237;245;161328;-55
2024/03/14 00:35:05;;;;;;;;;23.00;16.00;;;;;4.47;98.65;100659.55;112082;244;39261;-55
2024/03/14 00:37:40;;;;;;;;;21.33;15.67;;;;;4.46;98.77;100657.86;112131;245;39766;-52
2024/03/14 00:40:11;;;;;;;;;23.25;17.50;;;;;4.45;98.84;100661.52;112115;243;162010;-51
2024/03/14 00:42:45;;;;;;;;;25.00;18.00;;;;;4.42;98.88;100660.94;112458;243;40012;-51
2024/03/14 00:45:19;;;;;;;;;30.25;22.00;;;;;4.39;99.04;100663.34;112221;244;161497;-51
2024/03/14 00:47:51;;;;;;;;;30.50;19.50;;;;;4.37;99.12;100661.83;112386;243;41278;-51
2024/03/14 00:50:21;;;;;;;;;25.75;18.75;;;;;4.41;99.09;100661.09;112288;242;161808;-51
2024/03/14 00:52:54;;;;;;;;;24.25;18.25;;;;;4.48;98.99;100661.80;112117;244;40636;-51
2024/03/14 00:55:26;;;;;;;;;19.00;15.00;;;;;4.50;98.95;100660.16;112112;244;40795;-51
2024/03/14 00:58:00;;;;;;;;;22.00;17.00;;;;;4.43;99.01;100654.81;112001;245;161576;-51
2024/03/14 01:00:31;;;;;;;;;19.50;15.00;;;;;4.39;99.05;100655.55;112234;244;39339;-51
2024/03/14 01:03:04;;;;;;;;;26.75;20.00;;;;;4.39;99.20;100654.31;112174;245;161431;-51
2024/03/14 01:05:34;;;;;;;;;26.00;17.00;;;;;4.40;99.25;100651.33;112118;245;39131;-51
2024/03/14 01:08:06;;;;;;;;;26.00;18.00;;;;;4.38;99.19;100653.02;111997;242;161718;-51
2024/03/14 01:10:38;;;;;;;;;19.75;15.50;;;;;4.38;99.15;100651.89;112111;244;39388;-51
2024/03/14 01:13:09;;;;;;;;;24.50;17.25;;;;;4.44;99.19;100652.18;112115;244;41181;-54
2024/03/14 01:15:40;;;;;;;;;28.00;21.00;;;;;4.51;99.26;100648.54;112068;244;161309;-54
2024/03/14 01:18:12;;;;;;;;;31.00;24.00;;;;;4.51;99.24;100648.14;112222;244;39090;-52
2024/03/14 01:20:42;;;;;;;;;27.00;19.00;;;;;4.48;99.16;100647.52;112235;244;162021;-52
2024/03/14 01:23:14;;;;;;;;;28.33;21.00;;;;;4.52;99.19;100646.25;112135;245;39804;-51
2024/03/14 01:25:47;;;;;;;;;31.00;21.00;;;;;4.53;99.27;100644.38;112114;245;39588;-51
2024/03/14 01:28:17;;;;;;;;;32.00;21.33;;;;;4.51;99.23;100643.49;112112;243;161673;-51
2024/03/14 01:30:47;;;;;;;;;28.00;19.25;;;;;4.49;99.26;100643.70;112451;243;40243;-53
2024/03/14 01:33:20;;;;;;;;;20.00;15.00;;;;;4.46;99.36;100646.17;112182;245;160941;-51
2024/03/14 01:35:58;;;;;;;;;29.33;20.33;;;;;4.42;99.61;100645.42;112136;244;39047;-50
2024/03/14 01:38:31;;;;;;;;;25.00;19.00;;;;;4.43;99.41;100642.84;112230;241;161780;-54
2024/03/14 01:41:01;;;;;;;;;21.25;16.50;;;;;4.38;99.45;100636.17;112165;244;39524;-54
2024/03/14 01:43:34;;;;;;;;;21.00;17.00;;;;;4.39;99.42;100636.44;112410;244;39683;-54
2024/03/14 01:46:06;;;;;;;;;23.67;17.00;;;;;4.38;99.48;100636.55;112020;244;161480;-55
2024/03/14 01:48:41;;;;;;;;;23.25;16.25;;;;;4.37;99.57;100637.19;112410;244;39662;-53
2024/03/14 01:51:11;;;;;;;;;28.50;19.00;;;;;4.39;99.65;100636.66;112206;244;161301;-53
2024/03/14 01:53:42;;;;;;;;;26.00;19.50;;;;;4.37;99.72;100634.66;112162;244;41107;-51
2024/03/14 01:56:12;;;;;;;;;24.00;17.50;;;;;4.36;99.73;100635.54;112282;242;161751;-51
2024/03/14 01:58:45;;;;;;;;;29.00;23.50;;;;;4.39;99.70;100635.58;112142;244;40888;-54
2024/03/14 02:01:15;;;;;;;;;24.50;19.00;;;;;4.43;99.49;100632.48;112389;244;40671;-54
2024/03/14 02:03:49;;;;;;;;;25.00;19.00;;;;;4.46;99.48;100632.52;112119;244;161526;-53
2024/03/14 02:06:20;;;;;;;;;28.00;20.67;;;;;4.48;99.55;100633.98;112213;244;40558;-54
2024/03/14 02:08:50;;;;;;;;;22.33;17.67;;;;;4.46;99.51;100634.19;112244;244;161805;-53
2024/03/14 02:11:21;;;;;;;;;25.25;19.25;;;;;4.49;99.51;100636.01;112123;244;40266;-53
2024/03/14 02:13:55;;;;;;;;;29.00;21.00;;;;;4.52;99.60;100629.15;112120;245;39908;-53
2024/03/14 02:16:28;;;;;;;;;27.00;19.00;;;;;4.53;99.60;100628.51;112083;244;42164;-53
2024/03/14 02:19:02;;;;;;;;;27.00;20.00;;;;;4.49;99.53;100631.23;112159;244;40373;-51
2024/03/14 02:21:35;;;;;;;;;22.00;18.00;;;;;4.50;99.54;100630.27;111965;244;161175;-51
2024/03/14 02:24:07;;;;;;;;;27.00;20.00;;;;;4.53;99.33;100629.95;112374;243;41349;-53
2024/03/14 02:26:41;;;;;;;;;26.33;19.00;;;;;4.51;99.25;100629.59;112262;244;161980;-55
2024/03/14 02:29:11;;;;;;;;;25.33;19.00;;;;;4.54;99.39;100630.59;112237;244;39028;-52
2024/03/14 02:31:44;;;;;;;;;28.00;21.00;;;;;4.56;99.19;100628.59;112141;244;39492;-52
2024/03/14 02:34:16;;;;;;;;;32.00;24.00;;;;;4.60;99.22;100631.27;112188;243;161043;-54
2024/03/14 02:36:46;;;;;;;;;34.00;21.25;;;;;4.56;99.04;100629.13;112465;243;39864;-54
2024/03/14 02:39:18;;;;;;;;;27.50;19.50;;;;;4.53;99.11;100630.64;112295;245;160793;-54
2024/03/14 02:41:50;;;;;;;;;27.75;18.00;;;;;4.47;99.10;100635.11;112122;244;40056;-55
2024/03/14 02:44:23;;;;;;;;;29.00;20.00;;;;;4.39;99.12;100631.25;112302;242;161413;-51
2024/03/14 02:46:53;;;;;;;;;24.75;19.25;;;;;4.34;99.19;100633.20;112161;244;39800;-51
2024/03/14 02:49:27;;;;;;;;;33.25;21.00;;;;;4.30;99.10;100632.73;112411;244;41068;-51
2024/03/14 02:51:57;;;;;;;;;26.75;20.00;;;;;4.24;99.31;100628.30;112258;243;161533;-52
2024/03/14 02:54:30;;;;;;;;;22.50;17.50;;;;;4.22;99.34;100628.24;112474;243;40852;-51
2024/03/14 02:57:00;;;;;;;;;26.75;17.00;;;;;4.21;99.32;100632.33;112204;244;161835;-51
2024/03/14 02:59:33;;;;;;;;;31.75;21.00;;;;;4.20;99.44;100629.34;112111;244;39573;-54
2024/03/14 03:02:10;;;;;;;;;23.33;17.00;;;;;4.18;99.31;100627.90;112170;244;40849;-54
2024/03/14 03:04:41;;;;;;;;;25.25;18.00;;;;;4.11;99.40;100629.27;112118;244;40085;-54
2024/03/14 03:07:13;;;;;;;;;26.00;18.50;;;;;4.11;99.42;100630.70;112119;244;39452;-54
2024/03/14 03:09:49;;;;;;;;;25.75;20.00;;;;;4.10;99.43;100626.20;112016;246;161472;-55
2024/03/14 03:12:21;;;;;;;;;25.75;18.25;;;;;4.12;99.47;100631.15;112130;244;39866;-55
2024/03/14 03:14:52;;;;;;;;;28.67;19.67;;;;;4.11;99.43;100628.42;112077;244;161775;-52
2024/03/14 03:17:26;;;;;;;;;23.50;17.50;;;;;4.12;99.46;100628.42;112141;244;40166;-52
2024/03/14 03:20:09;;;;;;;;;32.75;22.00;;;;;4.14;99.55;100626.12;112146;244;39467;-53
2024/03/14 03:25:28;;;;;;;;;23.50;16.50;;;;;4.03;99.72;100632.03;112455;244;39275;-51
2024/03/14 03:28:03;;;;;;;;;24.25;17.50;;;;;4.01;99.68;100628.11;112095;245;161693;-52
2024/03/14 03:30:33;;;;;;;;;27.75;18.50;;;;;3.97;99.85;100626.98;112204;243;40554;-51
2024/03/14 03:33:06;;;;;;;;;21.25;17.50;;;;;4.00;99.85;100626.07;112211;245;161852;-51
2024/03/14 03:35:36;;;;;;;;;22.50;17.25;;;;;4.01;99.78;100627.77;112127;244;41151;-51
2024/03/14 03:38:07;;;;;;;;;27.75;19.50;;;;;4.06;99.83;100629.25;112195;244;41176;-53
2024/03/14 03:40:39;;;;;;;;;28.25;19.00;;;;;4.05;99.85;100625.52;112100;244;39976;-54
2024/03/14 03:43:12;;;;;;;;;25.33;18.67;;;;;3.99;99.95;100617.40;112134;244;39722;-51
2024/03/14 03:45:42;;;;;;;;;23.00;17.00;;;;;3.98;99.99;100615.38;112051;243;160675;-52
2024/03/14 03:48:15;;;;;;;;;22.00;17.00;;;;;3.98;99.93;100618.70;112408;243;38997;-51
2024/03/14 03:50:48;;;;;;;;;27.00;19.00;;;;;3.99;99.85;100614.53;112214;243;161455;-51
2024/03/14 03:53:21;;;;;;;;;34.00;24.00;;;;;3.95;99.95;100616.91;112289;243;39446;-54
2024/03/14 03:55:53;;;;;;;;;19.33;14.33;;;;;3.94;100.00;100618.89;112205;243;39647;-54
2024/03/14 03:58:23;;;;;;;;;29.50;21.00;;;;;3.99;99.96;100618.50;112098;243;162125;-54
2024/03/14 04:00:59;;;;;;;;;23.50;17.00;;;;;4.00;99.95;100618.76;112449;243;40341;-55
2024/03/14 04:03:36;;;;;;;;;27.25;20.50;;;;;4.02;100.00;100618.75;112196;243;163325;-52
2024/03/14 04:06:10;;;;;;;;;25.00;19.00;;;;;4.05;99.98;100623.59;112380;243;39657;-50
2024/03/14 04:08:45;;;;;;;;;27.00;19.00;;;;;4.07;99.98;100622.91;112252;243;162168;-54
2024/03/14 04:11:18;;;;;;;;;31.33;23.00;;;;;4.07;99.95;100625.16;112271;243;40925;-54
2024/03/14 04:13:48;;;;;;;;;25.00;18.00;;;;;4.13;99.99;100624.67;112467;243;39481;-53
2024/03/14 04:16:21;;;;;;;;;24.25;19.50;;;;;4.11;100.00;100624.48;112095;243;161774;-53
2024/03/14 04:18:53;;;;;;;;;28.00;23.00;;;;;4.08;99.99;100623.14;112481;243;39452;-54
2024/03/14 04:21:26;;;;;;;;;28.00;19.00;;;;;4.06;100.00;100624.04;112059;244;161488;-54
2024/03/14 04:23:57;;;;;;;;;35.00;24.00;;;;;4.08;100.00;100625.05;112370;243;40050;-51
2024/03/14 04:26:29;;;;;;;;;28.00;22.00;;;;;4.12;99.95;100627.21;112274;241;162574;-51
2024/03/14 04:29:02;;;;;;;;;29.50;22.00;;;;;4.13;99.98;100625.86;112129;244;40329;-54
2024/03/14 04:31:35;;;;;;;;;35.33;25.33;;;;;4.11;100.00;100629.95;112231;244;39845;-54
2024/03/14 04:34:09;;;;;;;;;30.50;23.00;;;;;4.12;100.00;100629.55;112017;245;163249;-53
2024/03/14 04:36:43;;;;;;;;;34.75;27.00;;;;;4.12;100.00;100630.61;112151;244;41259;-53
2024/03/14 04:39:14;;;;;;;;;28.00;22.00;;;;;4.09;100.00;100630.90;111993;244;161972;-54
2024/03/14 04:41:46;;;;;;;;;31.00;21.67;;;;;4.08;100.00;100634.67;112354;243;40180;-54
2024/03/14 04:44:20;;;;;;;;;34.67;25.00;;;;;4.10;99.96;100637.60;112386;241;163261;-54
2024/03/14 04:46:54;;;;;;;;;37.00;26.50;;;;;4.10;99.99;100641.67;112139;244;39619;-54
2024/03/14 04:49:24;;;;;;;;;31.00;23.50;;;;;4.08;99.99;100643.65;112283;244;39788;-54
2024/03/14 04:51:59;;;;;;;;;30.00;23.00;;;;;4.07;100.00;100642.83;112027;244;161564;-54
2024/03/14 04:54:32;;;;;;;;;33.00;24.00;;;;;4.08;100.00;100643.59;112426;243;40943;-53
2024/03/14 04:57:02;;;;;;;;;30.00;22.33;;;;;4.12;100.00;100648.96;112195;243;161896;-53
2024/03/14 04:59:35;;;;;;;;;31.00;22.00;;;;;4.17;100.00;100648.67;112306;244;39614;-53
2024/03/14 05:02:07;;;;;;;;;33.00;24.00;;;;;4.24;100.00;100653.23;112418;243;40366;-54
2024/03/14 05:04:40;;;;;;;;;38.00;28.75;;;;;4.31;100.00;100649.70;112296;244;40267;-51
2024/03/14 05:07:12;;;;;;;;;38.25;28.00;;;;;4.30;100.00;100653.92;112424;243;39698;-51
2024/03/14 05:09:43;;;;;;;;;30.75;24.50;;;;;4.28;100.00;100652.52;112215;243;161703;-53
2024/03/14 05:12:16;;;;;;;;;37.25;29.00;;;;;4.38;100.00;100657.91;112372;244;41031;-54
2024/03/14 05:14:49;;;;;;;;;38.00;27.25;;;;;4.46;100.00;100657.16;112256;244;161484;-51
2024/03/14 05:17:20;;;;;;;;;44.50;31.00;;;;;4.53;100.00;100653.89;112138;244;39513;-51
2024/03/14 05:19:51;;;;;;;;;45.25;31.00;;;;;4.55;100.00;100655.83;112277;244;41256;-52
2024/03/14 05:22:22;;;;;;;;;40.50;30.00;;;;;4.58;100.00;100656.91;112012;243;161826;-51
2024/03/14 05:24:58;;;;;;;;;38.50;28.25;;;;;4.62;100.00;100657.07;112443;243;41266;-55
2024/03/14 05:27:29;;;;;;;;;37.67;27.67;;;;;4.68;100.00;100657.21;112227;243;162191;-54
2024/03/14 05:29:59;;;;;;;;;48.00;33.00;;;;;4.67;100.00;100663.19;112361;243;40850;-54
2024/03/14 05:32:32;;;;;;;;;39.00;29.50;;;;;4.70;100.00;100652.88;112315;241;161940;-54
2024/03/14 05:35:06;;;;;;;;;35.00;27.00;;;;;4.77;100.00;100654.03;112156;244;39389;-54
2024/03/14 05:37:36;;;;;;;;;37.00;27.00;;;;;4.81;100.00;100653.65;112233;244;39996;-54
2024/03/14 05:40:10;;;;;;;;;42.00;30.00;;;;;4.90;100.00;100653.51;112034;244;161943;-51
2024/03/14 05:42:40;;;;;;;;;46.00;31.00;;;;;4.98;99.99;100656.04;112489;243;39665;-52
2024/03/14 05:45:16;;;;;;;;;50.33;35.00;;;;;4.95;99.96;100658.16;112201;245;160625;-51
2024/03/14 05:47:48;;;;;;;;;40.00;27.75;;;;;4.97;100.00;100656.40;112239;244;40497;-51
2024/03/14 05:50:22;;;;;;;;;33.33;25.33;;;;;5.02;100.00;100656.75;112126;244;162167;-51
2024/03/14 05:52:57;;;;;;;;;31.25;23.50;;;;;5.03;99.97;100657.23;112170;244;39631;-53
2024/03/14 05:55:30;;;;;;;;;37.50;28.00;;;;;5.10;99.98;100664.93;112134;244;40210;-53
2024/03/14 05:58:06;;;;;;;;;36.50;26.75;;;;;5.18;99.81;100670.02;112092;244;161618;-53
2024/03/14 06:00:36;;;;;;;;;38.75;27.00;;;;;5.18;99.90;100671.11;112344;244;39750;-54
2024/03/14 06:03:13;;;;;;;;;35.00;25.33;;;;;5.26;99.78;100673.73;112050;244;161674;-51
2024/03/14 06:05:43;;;;;;;;;32.67;23.67;;;;;5.32;99.85;100676.86;112302;243;40573;-51
2024/03/14 06:08:16;;;;;;;;;36.33;26.33;;;;;5.39;99.86;100677.08;112452;243;38940;-52
2024/03/14 06:10:48;;;;;;;;;34.50;25.50;;;;;5.48;99.74;100667.83;112111;244;39815;-51
2024/03/14 06:13:19;;;;;;;;;37.50;27.00;;;;;5.57;99.48;100670.17;112139;244;41328;-51
2024/03/14 06:15:50;;;;;;;;;37.33;27.33;;;;;5.62;99.43;100671.04;112014;244;161633;-51
2024/03/14 06:18:21;;;;;;;;;47.00;33.25;;;;;5.71;99.30;100674.59;112159;244;39515;-53
2024/03/14 06:20:55;;;;;;;;;44.33;33.00;;;;;5.77;99.18;100678.16;111983;244;161401;-52
2024/03/14 06:23:25;;;;;;;;;30.50;23.25;;;;;5.80;98.94;100680.17;112208;244;39317;-53
2024/03/14 06:25:59;;;;;;;;;44.75;31.75;;;;;5.83;98.82;100678.60;112228;244;39738;-52
2024/03/14 06:28:28;;;;;;;;;37.00;26.00;;;;;5.92;98.64;100681.08;112099;244;161098;-53
2024/03/14 06:30:59;;;;;;;;;32.33;24.00;;;;;6.00;98.45;100686.05;112383;244;40887;-52
2024/03/14 06:33:29;;;;;;;;;34.00;25.00;;;;;5.95;98.64;100685.68;112124;244;161330;-54
2024/03/14 06:36:05;;;;;;;;;36.50;27.00;;;;;6.00;98.66;100685.54;112344;243;39823;-53
2024/03/14 06:38:36;;;;;;;;;41.00;28.33;;;;;6.09;98.37;100684.98;111740;242;769619;-52
2024/03/14 06:41:07;;;;;;;;;43.75;30.75;;;;;6.15;98.41;100688.60;112134;244;40798;-52
2024/03/14 06:43:37;;;;;;;;;36.00;27.00;;;;;6.26;98.25;100686.55;112133;244;39527;-55
2024/03/14 06:46:15;;;;;;;;;44.00;31.00;;;;;6.40;98.00;100685.83;111988;244;162945;-55
2024/03/14 06:48:50;;;;;;;;;43.00;27.00;;;;;6.54;98.00;100684.84;112160;244;39594;-54
2024/03/14 06:51:20;;;;;;;;;36.67;27.67;;;;;6.65;97.52;100683.30;112000;244;161586;-54
2024/03/14 06:53:51;;;;;;;;;43.00;29.00;;;;;6.77;97.17;100685.86;112147;244;40471;-51
2024/03/14 06:56:26;;;;;;;;;50.00;34.25;;;;;6.85;96.81;100689.43;112032;242;161184;-51
2024/03/14 06:58:56;;;;;;;;;45.25;33.50;;;;;6.84;97.15;100691.92;112151;244;40482;-54
2024/03/14 07:01:28;;;;;;;;;41.75;32.00;;;;;6.99;96.91;100690.44;112071;244;40936;-54
2024/03/14 07:04:00;;;;;;;;;32.00;24.00;;;;;7.07;96.76;100691.64;112021;244;161335;-55
2024/03/14 07:06:31;;;;;;;;;40.67;28.00;;;;;7.13;96.35;100690.40;112100;244;39502;-55
2024/03/14 07:09:09;;;;;;;;;36.33;27.33;;;;;7.30;96.40;100688.42;112018;244;162105;-55
2024/03/14 07:11:44;;;;;;;;;35.00;25.50;;;;;7.46;96.14;100689.64;112168;244;39306;-55
2024/03/14 07:14:15;;;;;;;;;37.00;27.00;;;;;7.58;95.80;100686.17;112155;244;39115;-55
2024/03/14 07:16:51;;;;;;;;;38.50;28.25;;;;;7.67;95.90;100685.19;112142;244;39721;-55
2024/03/14 07:19:23;;;;;;;;;54.50;37.25;;;;;7.89;95.42;100685.48;112153;244;40724;-55
2024/03/14 07:21:54;;;;;;;;;47.25;33.00;;;;;8.02;94.89;100684.05;112023;244;160502;-55
2024/03/14 07:24:28;;;;;;;;;54.00;35.00;;;;;8.21;94.60;100688.48;112212;244;39451;-51
2024/03/14 07:27:01;;;;;;;;;44.75;33.00;;;;;8.21;94.50;100691.64;112027;243;161562;-51
2024/03/14 07:29:31;;;;;;;;;45.00;34.00;;;;;8.32;94.46;100690.19;112171;244;41345;-54
2024/03/14 07:32:05;;;;;;;;;38.75;27.25;;;;;8.43;93.84;100694.98;112158;244;40268;-54
2024/03/14 07:34:36;;;;;;;;;41.50;30.00;;;;;8.40;93.30;100696.23;112082;243;161431;-55
2024/03/14 07:37:10;;;;;;;;;40.00;29.00;;;;;8.48;92.85;100700.00;112433;243;39521;-55
2024/03/14 07:39:40;;;;;;;;;47.00;32.75;;;;;8.47;92.01;100698.35;112197;243;161883;-51
2024/03/14 07:42:11;;;;;;;;;38.25;27.00;;;;;8.36;91.55;100699.90;112221;244;39962;-51
2024/03/14 07:44:45;;;;;;;;;46.00;32.50;;;;;8.23;91.62;100698.85;112013;240;160388;-52
2024/03/14 07:47:19;;;;;;;;;51.75;36.00;;;;;8.36;91.90;100696.13;112134;244;39801;-51
2024/03/14 07:49:51;;;;;;;;;47.67;34.67;;;;;8.51;91.67;100695.75;112209;244;39778;-54
2024/03/14 07:52:22;;;;;;;;;44.33;32.00;;;;;8.68;91.32;100696.48;112024;244;161483;-55
2024/03/14 07:54:53;;;;;;;;;44.00;32.50;;;;;8.80;90.97;100696.06;112149;244;40663;-51
2024/03/14 07:57:23;;;;;;;;;46.00;34.00;;;;;9.07;90.74;100696.52;112093;245;161543;-51
2024/03/14 07:59:56;;;;;;;;;38.67;28.00;;;;;9.17;89.59;100699.64;112147;244;40080;-54
2024/03/14 08:02:29;;;;;;;;;46.50;33.50;;;;;9.23;90.14;100703.91;111962;242;161420;-54
2024/03/14 08:05:02;;;;;;;;;42.00;32.00;;;;;9.35;90.08;100709.20;112108;245;39082;-55
2024/03/14 08:07:32;;;;;;;;;50.00;36.50;;;;;9.46;89.99;100714.05;112162;244;39990;-55
2024/03/14 08:10:02;;;;;;;;;53.00;37.00;;;;;9.51;89.41;100717.94;112005;244;161454;-51
2024/03/14 08:12:36;;;;;;;;;52.25;36.50;;;;;9.61;89.21;100720.39;112292;244;40995;-51
2024/03/14 08:15:16;;;;;;;;;53.00;36.00;;;;;9.65;88.98;100723.70;112002;244;161126;-51
2024/03/14 08:17:46;;;;;;;;;48.25;34.75;;;;;9.58;88.26;100722.36;112188;244;39552;-52
2024/03/14 08:20:17;;;;;;;;;52.50;35.75;;;;;9.48;87.19;100722.10;112164;244;39011;-54
2024/03/14 08:22:52;;;;;;;;;37.67;27.00;;;;;9.43;87.16;100719.92;112190;244;39727;-54
2024/03/14 08:25:27;;;;;;;;;49.25;35.00;;;;;9.39;86.77;100720.10;112193;244;41116;-55
2024/03/14 08:28:03;;;;;;;;;49.25;32.50;;;;;9.50;86.12;100723.47;112003;245;160647;-55
2024/03/14 08:30:39;;;;;;;;;42.25;32.00;;;;;9.34;85.87;100724.94;112197;244;39749;-55
2024/03/14 08:33:08;;;;;;;;;44.00;33.00;;;;;9.12;85.43;100727.12;111984;243;160964;-53
2024/03/14 08:35:42;;;;;;;;;45.75;33.00;;;;;9.13;85.78;100728.44;112456;243;38980;-53
2024/03/14 08:38:13;;;;;;;;;35.33;27.00;;;;;9.16;85.87;100733.82;112467;244;40419;-50
2024/03/14 08:40:45;;;;;;;;;45.00;31.00;;;;;9.21;86.22;100731.73;112023;244;161782;-51
2024/03/14 08:43:20;;;;;;;;;51.00;35.00;;;;;9.34;86.01;100737.55;112187;244;38989;-51
2024/03/14 08:45:52;;;;;;;;;45.50;32.25;;;;;9.29;85.29;100738.45;112048;244;160666;-51
2024/03/14 08:48:22;;;;;;;;;48.00;33.00;;;;;9.18;85.16;100738.80;112173;244;39330;-54
2024/03/14 08:50:55;;;;;;;;;52.50;36.00;;;;;9.12;85.33;100740.57;112018;245;161919;-54
2024/03/14 08:53:36;;;;;;;;;42.00;29.25;;;;;9.26;85.67;100741.35;112194;244;38954;-51
2024/03/14 08:56:08;;;;;;;;;40.00;27.00;;;;;9.41;85.78;100738.20;112244;244;39734;-51
2024/03/14 08:58:40;;;;;;;;;41.00;28.00;;;;;9.39;85.38;100738.98;112077;244;161689;-55
2024/03/14 09:01:10;;;;;;;;;44.00;32.00;;;;;9.42;85.48;100735.73;112409;244;39238;-55
2024/03/14 09:03:40;;;;;;;;;45.50;33.50;;;;;9.53;85.51;100734.32;112192;244;161413;-51
2024/03/14 09:06:15;;;;;;;;;38.25;28.00;;;;;9.63;85.41;100735.45;112137;244;39601;-51
2024/03/14 09:08:45;;;;;;;;;40.50;31.00;;;;;9.82;84.42;100737.73;112024;242;161380;-53
2024/03/14 09:11:19;;;;;;;;;45.25;33.75;;;;;9.84;83.97;100738.42;112107;245;39594;-53
2024/03/14 09:13:52;;;;;;;;;35.33;25.00;;;;;9.85;83.94;100734.54;112133;245;39835;-50
2024/03/14 09:16:26;;;;;;;;;33.25;24.50;;;;;9.90;83.24;100731.49;111979;245;161062;-50
2024/03/14 09:18:57;;;;;;;;;31.75;24.25;;;;;9.97;82.80;100728.08;112164;244;40548;-51
2024/03/14 09:21:28;;;;;;;;;48.00;32.75;;;;;10.07;82.66;100732.13;111931;245;161468;-51
2024/03/14 09:24:02;;;;;;;;;35.50;26.00;;;;;10.21;82.94;100730.73;112229;244;40417;-55
2024/03/14 09:26:38;;;;;;;;;42.00;29.00;;;;;10.28;82.54;100729.36;112139;241;161980;-55
2024/03/14 09:29:11;;;;;;;;;44.00;32.75;;;;;10.38;82.31;100728.48;112148;244;41011;-51
2024/03/14 09:31:49;;;;;;;;;46.00;33.33;;;;;10.46;81.71;100732.98;112266;244;39261;-51
2024/03/14 09:34:20;;;;;;;;;41.50;30.25;;;;;10.41;81.19;100729.67;112076;244;161644;-55
2024/03/14 09:36:53;;;;;;;;;45.00;32.25;;;;;10.40;81.32;100728.63;112264;244;39867;-55
2024/03/14 09:39:23;;;;;;;;;36.75;27.50;;;;;10.37;81.71;100727.33;112084;245;161319;-55
2024/03/14 09:41:55;;;;;;;;;49.50;36.00;;;;;10.55;81.92;100723.98;112203;244;39574;-55
2024/03/14 09:44:25;;;;;;;;;36.50;26.00;;;;;10.72;81.82;100721.02;112136;242;162762;-55
2024/03/14 09:46:58;;;;;;;;;34.33;26.00;;;;;10.93;81.22;100718.89;112138;244;39845;-55
2024/03/14 09:49:30;;;;;;;;;45.25;33.00;;;;;11.01;80.26;100717.73;112177;244;40322;-55
2024/03/14 09:52:05;;;;;;;;;45.00;31.67;;;;;11.09;80.39;100714.83;111996;245;160979;-55
2024/03/14 09:54:41;;;;;;;;;42.33;32.00;;;;;11.16;80.01;100712.52;112118;244;39714;-54
2024/03/14 09:57:12;;;;;;;;;44.50;32.50;;;;;11.19;79.80;100712.04;111992;245;161121;-53
2024/03/14 09:59:46;;;;;;;;;42.50;31.50;;;;;11.33;79.81;100707.27;112125;245;40289;-52
2024/03/14 10:02:17;;;;;;;;;42.33;29.67;;;;;11.46;79.32;100706.82;112125;244;39215;-52
2024/03/14 10:04:49;;;;;;;;;47.00;33.00;;;;;11.59;78.85;100708.96;112152;245;40534;-52
2024/03/14 10:07:20;;;;;;;;;48.00;33.25;;;;;12.05;78.61;100703.06;112153;244;39946;-52
2024/03/14 10:09:55;;;;;;;;;45.00;33.00;;;;;12.28;78.59;100702.56;112026;245;161474;-52
2024/03/14 10:12:26;;;;;;;;;47.00;33.00;;;;;12.52;77.42;100699.95;112187;244;39873;-52
2024/03/14 10:15:00;;;;;;;;;41.50;29.50;;;;;12.39;76.70;100694.00;112027;246;161310;-55
2024/03/14 10:17:31;;;;;;;;;45.50;31.75;;;;;12.26;75.57;100697.11;112135;244;40817;-55
2024/03/14 10:20:08;;;;;;;;;40.00;27.50;;;;;12.14;75.08;100692.99;112111;244;39262;-60
2024/03/14 10:22:38;;;;;;;;;40.00;30.00;;;;;12.03;75.78;100688.20;112013;244;161125;-61
2024/03/14 10:25:12;;;;;;;;;38.50;29.00;;;;;12.19;76.26;100687.09;112246;244;39485;-62
2024/03/14 10:27:47;;;;;;;;;41.00;29.75;;;;;12.26;75.85;100680.41;112057;243;161359;-54
2024/03/14 10:30:19;;;;;;;;;41.25;31.00;;;;;12.35;75.33;100674.54;112132;244;40501;-54
2024/03/14 10:32:54;;;;;;;;;38.75;29.00;;;;;12.19;74.69;100671.29;111993;244;161282;-52
2024/03/14 10:35:30;;;;;;;;;42.50;32.00;;;;;12.03;74.67;100669.34;112145;244;39132;-52
2024/03/14 10:38:03;;;;;;;;;38.00;26.75;;;;;11.88;74.46;100668.75;112154;244;39781;-54
2024/03/14 10:40:37;;;;;;;;;43.00;30.50;;;;;11.66;73.63;100664.85;112027;244;160846;-55
2024/03/14 10:43:11;;;;;;;;;36.00;27.75;;;;;11.60;74.74;100660.52;112290;244;40536;-52
2024/03/14 10:45:52;;;;;;;;;42.25;31.75;;;;;11.62;75.07;100661.58;112069;243;161479;-51
2024/03/14 10:48:25;;;;;;;;;38.75;29.00;;;;;11.52;75.00;100663.62;112467;243;40751;-50
2024/03/14 10:50:57;;;;;;;;;39.00;30.00;;;;;11.53;74.64;100665.27;112314;245;161165;-50
2024/03/14 10:53:27;;;;;;;;;35.50;27.75;;;;;11.49;74.11;100662.41;112156;244;39558;-50
2024/03/14 10:55:57;;;;;;;;;41.50;30.00;;;;;11.31;74.14;100663.35;112234;244;41262;-50
2024/03/14 10:58:28;;;;;;;;;47.00;33.00;;;;;11.22;74.46;100659.77;112034;244;161260;-53
2024/03/14 11:00:59;;;;;;;;;44.75;33.50;;;;;11.28;74.38;100652.95;112119;244;39441;-54
2024/03/14 11:03:34;;;;;;;;;42.50;31.00;;;;;11.27;74.56;100651.94;112083;244;161270;-53
2024/03/14 11:06:05;;;;;;;;;31.00;22.50;;;;;11.42;75.13;100653.05;112331;243;40203;-53
2024/03/14 11:08:39;;;;;;;;;36.50;26.75;;;;;11.52;74.98;100649.98;112305;241;161453;-51
2024/03/14 11:11:13;;;;;;;;;36.75;25.25;;;;;11.53;74.70;100649.27;112108;244;39501;-52
2024/03/14 11:13:46;;;;;;;;;32.50;25.00;;;;;11.40;73.22;100646.27;112167;244;40053;-51
2024/03/14 11:16:19;;;;;;;;;38.00;28.00;;;;;11.15;73.40;100648.20;112009;245;161332;-51
2024/03/14 11:18:53;;;;;;;;;36.00;25.00;;;;;10.96;73.66;100645.02;112151;244;40601;-53
2024/03/14 11:21:25;;;;;;;;;40.67;29.67;;;;;10.91;73.68;100648.80;112038;245;161500;-59
2024/03/14 11:23:56;;;;;;;;;28.33;21.00;;;;;10.84;73.95;100652.69;112168;244;40041;-60
2024/03/14 11:26:26;;;;;;;;;38.50;27.50;;;;;10.91;74.38;100658.90;112030;240;161211;-60
2024/03/14 11:29:02;;;;;;;;;34.00;25.50;;;;;10.96;74.27;100647.96;112176;244;40430;-51
2024/03/14 11:31:39;;;;;;;;;34.25;25.00;;;;;10.96;74.27;100646.55;112206;244;41461;-52
2024/03/14 11:34:15;;;;;;;;;35.00;25.00;;;;;10.91;74.60;100638.86;112092;244;161062;-55
2024/03/14 11:36:48;;;;;;;;;37.50;27.00;;;;;10.96;74.46;100635.23;112521;243;39589;-53
2024/03/14 11:39:22;;;;;;;;;39.67;28.67;;;;;10.91;74.29;100634.08;112302;243;160852;-55